sensor_id;sensor_type;location;lat;lon;timestamp;P1;durP1;ratioP1;P2;durP2;ratioP2
55678;SDS011;41573;51.446;-2.018;2022-09-29T00:00:19;5.07;;;1.42;;
55678;SDS011;41573;51.446;-2.018;2022-09-29T00:02:45;1.90;;;1.27;;
55678;SDS011;41573;51.446;-2.018;2022-09-29T00:05:10;4.05;;;2.00;;
55678;SDS011;41573;51.446;-2.018;2022-09-29T00:07:37;6.93;;;1.60;;
55678;SDS011;41573;51.446;-2.018;2022-09-29T00:10:02;1.45;;;1.35;;
55678;SDS011;41573;51.446;-2.018;2022-09-29T00:12:28;3.80;;;1.25;;
55678;SDS011;41573;51.446;-2.018;2022-09-29T00:14:54;3.90;;;1.48;;
55678;SDS011;41573;51.446;-2.018;2022-09-29T00:17:19;1.17;;;1.08;;
55678;SDS011;41573;51.446;-2.018;2022-09-29T00:19:45;1.23;;;0.98;;
55678;SDS011;41573;51.446;-2.018;2022-09-29T00:22:10;1.60;;;1.20;;
55678;SDS011;41573;51.446;-2.018;2022-09-29T00:24:36;3.92;;;1.02;;
55678;SDS011;41573;51.446;-2.018;2022-09-29T00:27:01;1.33;;;1.02;;
55678;SDS011;41573;51.446;-2.018;2022-09-29T00:29:27;1.52;;;1.10;;
55678;SDS011;41573;51.446;-2.018;2022-09-29T00:31:52;1.30;;;1.20;;
55678;SDS011;41573;51.446;-2.018;2022-09-29T00:34:17;0.80;;;0.80;;
55678;SDS011;41573;51.446;-2.018;2022-09-29T00:36:43;3.35;;;1.30;;
55678;SDS011;41573;51.446;-2.018;2022-09-29T00:39:08;1.73;;;1.17;;
55678;SDS011;41573;51.446;-2.018;2022-09-29T00:41:35;1.58;;;1.05;;
55678;SDS011;41573;51.446;-2.018;2022-09-29T00:44:03;2.05;;;1.55;;
55678;SDS011;41573;51.446;-2.018;2022-09-29T00:46:48;0.95;;;0.82;;
55678;SDS011;41573;51.446;-2.018;2022-09-29T00:52:09;4.72;;;1.10;;
55678;SDS011;41573;51.446;-2.018;2022-09-29T00:54:49;1.98;;;1.30;;
55678;SDS011;41573;51.446;-2.018;2022-09-29T00:57:20;1.60;;;1.15;;
55678;SDS011;41573;51.446;-2.018;2022-09-29T00:59:58;2.50;;;1.00;;
55678;SDS011;41573;51.446;-2.018;2022-09-29T01:02:32;5.00;;;1.10;;
55678;SDS011;41573;51.446;-2.018;2022-09-29T01:05:02;2.08;;;1.05;;
55678;SDS011;41573;51.446;-2.018;2022-09-29T01:07:32;1.60;;;1.15;;
55678;SDS011;41573;51.446;-2.018;2022-09-29T01:09:58;1.60;;;0.95;;
55678;SDS011;41573;51.446;-2.018;2022-09-29T01:12:24;7.57;;;1.20;;
55678;SDS011;41573;51.446;-2.018;2022-09-29T01:14:50;2.05;;;1.20;;
55678;SDS011;41573;51.446;-2.018;2022-09-29T01:17:17;3.42;;;1.20;;
55678;SDS011;41573;51.446;-2.018;2022-09-29T01:28:22;1.52;;;1.10;;
55678;SDS011;41573;51.446;-2.018;2022-09-29T01:34:47;3.03;;;1.50;;
55678;SDS011;41573;51.446;-2.018;2022-09-29T01:36:57;3.15;;;1.13;;
55678;SDS011;41573;51.446;-2.018;2022-09-29T01:42:42;0.98;;;0.73;;
55678;SDS011;41573;51.446;-2.018;2022-09-29T01:47:43;1.33;;;1.15;;
55678;SDS011;41573;51.446;-2.018;2022-09-29T01:50:17;1.98;;;1.20;;
55678;SDS011;41573;51.446;-2.018;2022-09-29T01:52:52;2.53;;;1.45;;
55678;SDS011;41573;51.446;-2.018;2022-09-29T01:55:25;2.05;;;1.05;;
55678;SDS011;41573;51.446;-2.018;2022-09-29T02:00:24;2.53;;;1.60;;
55678;SDS011;41573;51.446;-2.018;2022-09-29T02:05:46;1.80;;;1.30;;
55678;SDS011;41573;51.446;-2.018;2022-09-29T02:08:17;2.10;;;1.27;;
55678;SDS011;41573;51.446;-2.018;2022-09-29T02:11:04;2.30;;;1.40;;
55678;SDS011;41573;51.446;-2.018;2022-09-29T02:13:32;3.08;;;1.50;;
55678;SDS011;41573;51.446;-2.018;2022-09-29T02:16:02;2.38;;;1.70;;
55678;SDS011;41573;51.446;-2.018;2022-09-29T02:18:31;1.65;;;1.13;;
55678;SDS011;41573;51.446;-2.018;2022-09-29T02:21:04;1.80;;;1.27;;
55678;SDS011;41573;51.446;-2.018;2022-09-29T02:23:30;2.90;;;1.45;;
55678;SDS011;41573;51.446;-2.018;2022-09-29T02:25:55;2.35;;;1.20;;
55678;SDS011;41573;51.446;-2.018;2022-09-29T02:28:24;1.90;;;1.20;;
55678;SDS011;41573;51.446;-2.018;2022-09-29T02:30:49;2.83;;;1.38;;
55678;SDS011;41573;51.446;-2.018;2022-09-29T02:33:19;2.30;;;1.20;;
55678;SDS011;41573;51.446;-2.018;2022-09-29T02:36:02;2.78;;;1.25;;
55678;SDS011;41573;51.446;-2.018;2022-09-29T02:41:33;3.13;;;1.10;;
55678;SDS011;41573;51.446;-2.018;2022-09-29T02:51:58;3.58;;;1.58;;
55678;SDS011;41573;51.446;-2.018;2022-09-29T02:57:19;2.38;;;1.42;;
55678;SDS011;41573;51.446;-2.018;2022-09-29T03:02:41;1.98;;;1.27;;
55678;SDS011;41573;51.446;-2.018;2022-09-29T03:05:12;4.88;;;1.40;;
55678;SDS011;41573;51.446;-2.018;2022-09-29T03:07:40;2.03;;;1.40;;
55678;SDS011;41573;51.446;-2.018;2022-09-29T03:10:06;2.22;;;1.42;;
55678;SDS011;41573;51.446;-2.018;2022-09-29T03:12:33;5.20;;;2.50;;
55678;SDS011;41573;51.446;-2.018;2022-09-29T03:14:59;2.33;;;1.60;;
55678;SDS011;41573;51.446;-2.018;2022-09-29T03:17:24;3.40;;;2.15;;
55678;SDS011;41573;51.446;-2.018;2022-09-29T03:19:50;4.10;;;2.30;;
55678;SDS011;41573;51.446;-2.018;2022-09-29T03:22:15;2.65;;;1.70;;
55678;SDS011;41573;51.446;-2.018;2022-09-29T03:24:43;3.80;;;2.10;;
55678;SDS011;41573;51.446;-2.018;2022-09-29T03:27:08;6.20;;;2.10;;
55678;SDS011;41573;51.446;-2.018;2022-09-29T03:29:34;4.25;;;2.05;;
55678;SDS011;41573;51.446;-2.018;2022-09-29T03:32:01;4.05;;;2.00;;
55678;SDS011;41573;51.446;-2.018;2022-09-29T03:34:26;5.70;;;1.90;;
55678;SDS011;41573;51.446;-2.018;2022-09-29T03:36:52;4.60;;;2.05;;
55678;SDS011;41573;51.446;-2.018;2022-09-29T03:39:17;3.88;;;2.10;;
55678;SDS011;41573;51.446;-2.018;2022-09-29T03:41:43;2.75;;;1.85;;
55678;SDS011;41573;51.446;-2.018;2022-09-29T03:44:08;3.10;;;1.85;;
55678;SDS011;41573;51.446;-2.018;2022-09-29T03:46:34;3.78;;;2.35;;
55678;SDS011;41573;51.446;-2.018;2022-09-29T03:48:59;4.05;;;2.03;;
55678;SDS011;41573;51.446;-2.018;2022-09-29T03:51:24;6.57;;;2.05;;
55678;SDS011;41573;51.446;-2.018;2022-09-29T03:53:50;4.45;;;2.05;;
55678;SDS011;41573;51.446;-2.018;2022-09-29T03:56:15;2.90;;;2.00;;
55678;SDS011;41573;51.446;-2.018;2022-09-29T03:58:40;3.20;;;1.60;;
55678;SDS011;41573;51.446;-2.018;2022-09-29T04:01:06;3.70;;;1.80;;
55678;SDS011;41573;51.446;-2.018;2022-09-29T04:03:31;3.88;;;2.15;;
55678;SDS011;41573;51.446;-2.018;2022-09-29T04:05:57;3.85;;;2.08;;
55678;SDS011;41573;51.446;-2.018;2022-09-29T04:08:22;3.83;;;1.90;;
55678;SDS011;41573;51.446;-2.018;2022-09-29T04:10:48;5.47;;;2.17;;
55678;SDS011;41573;51.446;-2.018;2022-09-29T04:13:14;4.22;;;1.73;;
55678;SDS011;41573;51.446;-2.018;2022-09-29T04:15:39;3.60;;;1.98;;
55678;SDS011;41573;51.446;-2.018;2022-09-29T04:18:05;6.45;;;2.13;;
55678;SDS011;41573;51.446;-2.018;2022-09-29T04:20:30;5.78;;;2.33;;
55678;SDS011;41573;51.446;-2.018;2022-09-29T04:22:57;2.75;;;2.15;;
55678;SDS011;41573;51.446;-2.018;2022-09-29T04:25:23;4.55;;;2.00;;
55678;SDS011;41573;51.446;-2.018;2022-09-29T04:27:48;5.88;;;2.65;;
55678;SDS011;41573;51.446;-2.018;2022-09-29T04:30:14;4.80;;;2.38;;
55678;SDS011;41573;51.446;-2.018;2022-09-29T04:32:40;4.43;;;2.03;;
55678;SDS011;41573;51.446;-2.018;2022-09-29T04:35:05;5.75;;;2.08;;
55678;SDS011;41573;51.446;-2.018;2022-09-29T04:37:31;4.30;;;2.28;;
55678;SDS011;41573;51.446;-2.018;2022-09-29T04:39:57;3.17;;;2.22;;
55678;SDS011;41573;51.446;-2.018;2022-09-29T04:42:22;4.32;;;1.90;;
55678;SDS011;41573;51.446;-2.018;2022-09-29T04:44:49;5.10;;;2.53;;
55678;SDS011;41573;51.446;-2.018;2022-09-29T04:47:14;4.70;;;2.65;;
55678;SDS011;41573;51.446;-2.018;2022-09-29T04:49:41;4.40;;;2.45;;
55678;SDS011;41573;51.446;-2.018;2022-09-29T04:52:06;5.10;;;2.20;;
55678;SDS011;41573;51.446;-2.018;2022-09-29T04:54:32;3.53;;;2.25;;
55678;SDS011;41573;51.446;-2.018;2022-09-29T04:56:58;2.58;;;1.92;;
55678;SDS011;41573;51.446;-2.018;2022-09-29T04:59:25;3.47;;;1.85;;
55678;SDS011;41573;51.446;-2.018;2022-09-29T05:01:51;3.30;;;2.28;;
55678;SDS011;41573;51.446;-2.018;2022-09-29T05:04:16;3.65;;;2.30;;
55678;SDS011;41573;51.446;-2.018;2022-09-29T05:06:41;5.97;;;2.65;;
55678;SDS011;41573;51.446;-2.018;2022-09-29T05:09:07;3.17;;;2.45;;
55678;SDS011;41573;51.446;-2.018;2022-09-29T05:11:33;5.13;;;2.15;;
55678;SDS011;41573;51.446;-2.018;2022-09-29T05:13:58;3.83;;;2.42;;
55678;SDS011;41573;51.446;-2.018;2022-09-29T05:16:24;6.75;;;2.15;;
55678;SDS011;41573;51.446;-2.018;2022-09-29T05:18:50;4.10;;;2.05;;
55678;SDS011;41573;51.446;-2.018;2022-09-29T05:21:16;5.75;;;2.70;;
55678;SDS011;41573;51.446;-2.018;2022-09-29T05:23:41;3.90;;;2.20;;
55678;SDS011;41573;51.446;-2.018;2022-09-29T05:26:08;4.60;;;2.78;;
55678;SDS011;41573;51.446;-2.018;2022-09-29T05:28:35;5.60;;;2.42;;
55678;SDS011;41573;51.446;-2.018;2022-09-29T05:31:02;6.35;;;2.35;;
55678;SDS011;41573;51.446;-2.018;2022-09-29T05:33:28;3.65;;;2.10;;
55678;SDS011;41573;51.446;-2.018;2022-09-29T05:35:54;3.38;;;2.05;;
55678;SDS011;41573;51.446;-2.018;2022-09-29T05:38:19;4.55;;;2.13;;
55678;SDS011;41573;51.446;-2.018;2022-09-29T05:40:44;5.05;;;2.60;;
55678;SDS011;41573;51.446;-2.018;2022-09-29T05:43:10;3.47;;;2.30;;
55678;SDS011;41573;51.446;-2.018;2022-09-29T05:45:36;5.18;;;2.35;;
55678;SDS011;41573;51.446;-2.018;2022-09-29T05:48:01;4.88;;;2.35;;
55678;SDS011;41573;51.446;-2.018;2022-09-29T05:50:27;4.65;;;2.17;;
55678;SDS011;41573;51.446;-2.018;2022-09-29T05:52:52;5.07;;;2.28;;
55678;SDS011;41573;51.446;-2.018;2022-09-29T05:55:18;4.32;;;2.65;;
55678;SDS011;41573;51.446;-2.018;2022-09-29T05:57:47;4.45;;;2.10;;
55678;SDS011;41573;51.446;-2.018;2022-09-29T06:00:13;3.75;;;2.13;;
55678;SDS011;41573;51.446;-2.018;2022-09-29T06:02:39;3.95;;;2.25;;
55678;SDS011;41573;51.446;-2.018;2022-09-29T06:05:04;6.95;;;2.88;;
55678;SDS011;41573;51.446;-2.018;2022-09-29T06:07:30;3.78;;;2.47;;
55678;SDS011;41573;51.446;-2.018;2022-09-29T06:09:55;10.32;;;2.97;;
55678;SDS011;41573;51.446;-2.018;2022-09-29T06:12:21;6.57;;;2.70;;
55678;SDS011;41573;51.446;-2.018;2022-09-29T06:14:46;3.90;;;2.60;;
55678;SDS011;41573;51.446;-2.018;2022-09-29T06:17:12;4.57;;;2.83;;
55678;SDS011;41573;51.446;-2.018;2022-09-29T06:19:38;3.55;;;2.38;;
55678;SDS011;41573;51.446;-2.018;2022-09-29T06:22:03;5.05;;;2.90;;
55678;SDS011;41573;51.446;-2.018;2022-09-29T06:24:28;5.22;;;2.75;;
55678;SDS011;41573;51.446;-2.018;2022-09-29T06:26:54;5.05;;;2.50;;
55678;SDS011;41573;51.446;-2.018;2022-09-29T06:29:19;4.05;;;2.85;;
55678;SDS011;41573;51.446;-2.018;2022-09-29T06:31:44;6.50;;;2.95;;
55678;SDS011;41573;51.446;-2.018;2022-09-29T06:34:11;4.97;;;2.60;;
55678;SDS011;41573;51.446;-2.018;2022-09-29T06:36:40;6.50;;;3.20;;
55678;SDS011;41573;51.446;-2.018;2022-09-29T06:41:51;8.63;;;4.18;;
55678;SDS011;41573;51.446;-2.018;2022-09-29T06:44:18;4.82;;;3.10;;
55678;SDS011;41573;51.446;-2.018;2022-09-29T06:46:45;5.38;;;3.30;;
55678;SDS011;41573;51.446;-2.018;2022-09-29T06:49:11;5.47;;;2.72;;
55678;SDS011;41573;51.446;-2.018;2022-09-29T06:51:39;4.88;;;2.83;;
55678;SDS011;41573;51.446;-2.018;2022-09-29T06:54:05;5.60;;;3.15;;
55678;SDS011;41573;51.446;-2.018;2022-09-29T06:56:30;7.32;;;3.30;;
55678;SDS011;41573;51.446;-2.018;2022-09-29T06:58:56;5.57;;;2.95;;
55678;SDS011;41573;51.446;-2.018;2022-09-29T07:01:21;4.68;;;2.47;;
55678;SDS011;41573;51.446;-2.018;2022-09-29T07:03:46;5.88;;;2.53;;
55678;SDS011;41573;51.446;-2.018;2022-09-29T07:06:12;4.32;;;2.63;;
55678;SDS011;41573;51.446;-2.018;2022-09-29T07:08:37;3.83;;;2.60;;
55678;SDS011;41573;51.446;-2.018;2022-09-29T07:11:07;5.55;;;3.22;;
55678;SDS011;41573;51.446;-2.018;2022-09-29T07:16:06;5.63;;;3.10;;
55678;SDS011;41573;51.446;-2.018;2022-09-29T07:18:33;4.35;;;2.88;;
55678;SDS011;41573;51.446;-2.018;2022-09-29T07:21:02;4.47;;;3.05;;
55678;SDS011;41573;51.446;-2.018;2022-09-29T07:23:28;7.75;;;3.25;;
55678;SDS011;41573;51.446;-2.018;2022-09-29T07:25:53;7.32;;;2.75;;
55678;SDS011;41573;51.446;-2.018;2022-09-29T07:28:19;5.15;;;3.00;;
55678;SDS011;41573;51.446;-2.018;2022-09-29T07:30:44;4.82;;;2.58;;
55678;SDS011;41573;51.446;-2.018;2022-09-29T07:33:10;5.03;;;2.75;;
55678;SDS011;41573;51.446;-2.018;2022-09-29T07:35:35;5.10;;;3.15;;
55678;SDS011;41573;51.446;-2.018;2022-09-29T07:38:01;7.20;;;2.85;;
55678;SDS011;41573;51.446;-2.018;2022-09-29T07:40:26;4.80;;;2.90;;
55678;SDS011;41573;51.446;-2.018;2022-09-29T07:42:52;4.85;;;2.95;;
55678;SDS011;41573;51.446;-2.018;2022-09-29T07:45:17;9.10;;;3.05;;
55678;SDS011;41573;51.446;-2.018;2022-09-29T07:47:43;6.78;;;2.70;;
55678;SDS011;41573;51.446;-2.018;2022-09-29T07:50:09;4.68;;;2.85;;
55678;SDS011;41573;51.446;-2.018;2022-09-29T07:52:35;6.28;;;3.17;;
55678;SDS011;41573;51.446;-2.018;2022-09-29T07:55:01;4.57;;;2.45;;
55678;SDS011;41573;51.446;-2.018;2022-09-29T07:57:26;4.05;;;2.67;;
55678;SDS011;41573;51.446;-2.018;2022-09-29T07:59:52;5.88;;;2.42;;
55678;SDS011;41573;51.446;-2.018;2022-09-29T08:02:19;4.70;;;2.97;;
55678;SDS011;41573;51.446;-2.018;2022-09-29T08:04:44;4.97;;;2.75;;
55678;SDS011;41573;51.446;-2.018;2022-09-29T08:07:10;5.40;;;3.05;;
55678;SDS011;41573;51.446;-2.018;2022-09-29T08:09:35;4.85;;;2.95;;
55678;SDS011;41573;51.446;-2.018;2022-09-29T08:12:01;7.38;;;2.50;;
55678;SDS011;41573;51.446;-2.018;2022-09-29T08:14:27;8.45;;;2.67;;
55678;SDS011;41573;51.446;-2.018;2022-09-29T08:16:52;6.13;;;2.75;;
55678;SDS011;41573;51.446;-2.018;2022-09-29T08:19:18;4.20;;;1.98;;
55678;SDS011;41573;51.446;-2.018;2022-09-29T08:21:43;4.47;;;2.65;;
55678;SDS011;41573;51.446;-2.018;2022-09-29T08:24:11;5.65;;;2.63;;
55678;SDS011;41573;51.446;-2.018;2022-09-29T08:26:37;5.03;;;2.65;;
55678;SDS011;41573;51.446;-2.018;2022-09-29T08:29:04;5.28;;;2.70;;
55678;SDS011;41573;51.446;-2.018;2022-09-29T08:31:30;4.35;;;2.53;;
55678;SDS011;41573;51.446;-2.018;2022-09-29T08:33:56;4.82;;;2.78;;
55678;SDS011;41573;51.446;-2.018;2022-09-29T08:38:51;5.10;;;2.67;;
55678;SDS011;41573;51.446;-2.018;2022-09-29T08:43:53;4.57;;;2.95;;
55678;SDS011;41573;51.446;-2.018;2022-09-29T08:46:37;4.70;;;2.80;;
55678;SDS011;41573;51.446;-2.018;2022-09-29T08:49:17;4.97;;;2.78;;
55678;SDS011;41573;51.446;-2.018;2022-09-29T08:51:45;5.85;;;3.30;;
55678;SDS011;41573;51.446;-2.018;2022-09-29T08:57:00;5.85;;;3.33;;
55678;SDS011;41573;51.446;-2.018;2022-09-29T08:59:27;7.45;;;3.40;;
55678;SDS011;41573;51.446;-2.018;2022-09-29T09:10:09;6.35;;;3.78;;
55678;SDS011;41573;51.446;-2.018;2022-09-29T09:12:54;8.68;;;3.00;;
55678;SDS011;41573;51.446;-2.018;2022-09-29T09:21:46;6.55;;;3.83;;
55678;SDS011;41573;51.446;-2.018;2022-09-29T09:26:43;5.60;;;3.30;;
55678;SDS011;41573;51.446;-2.018;2022-09-29T09:29:18;7.03;;;3.97;;
55678;SDS011;41573;51.446;-2.018;2022-09-29T09:31:58;7.60;;;4.13;;
55678;SDS011;41573;51.446;-2.018;2022-09-29T09:36:59;6.05;;;3.63;;
55678;SDS011;41573;51.446;-2.018;2022-09-29T09:39:33;5.75;;;3.72;;
55678;SDS011;41573;51.446;-2.018;2022-09-29T09:42:02;7.78;;;4.22;;
55678;SDS011;41573;51.446;-2.018;2022-09-29T09:44:39;6.80;;;3.78;;
55678;SDS011;41573;51.446;-2.018;2022-09-29T09:47:21;8.90;;;4.57;;
55678;SDS011;41573;51.446;-2.018;2022-09-29T09:49:55;7.65;;;4.03;;
55678;SDS011;41573;51.446;-2.018;2022-09-29T09:52:32;8.93;;;4.65;;
55678;SDS011;41573;51.446;-2.018;2022-09-29T09:55:04;8.77;;;4.82;;
55678;SDS011;41573;51.446;-2.018;2022-09-29T09:57:48;8.60;;;4.30;;
55678;SDS011;41573;51.446;-2.018;2022-09-29T10:00:22;11.02;;;5.03;;
55678;SDS011;41573;51.446;-2.018;2022-09-29T10:02:53;9.07;;;4.55;;
55678;SDS011;41573;51.446;-2.018;2022-09-29T10:05:25;10.07;;;4.32;;
55678;SDS011;41573;51.446;-2.018;2022-09-29T10:07:56;11.20;;;4.43;;
55678;SDS011;41573;51.446;-2.018;2022-09-29T10:10:23;8.35;;;4.00;;
55678;SDS011;41573;51.446;-2.018;2022-09-29T10:13:24;6.70;;;3.83;;
55678;SDS011;41573;51.446;-2.018;2022-09-29T10:15:44;9.55;;;4.40;;
55678;SDS011;41573;51.446;-2.018;2022-09-29T10:18:25;7.63;;;4.05;;
55678;SDS011;41573;51.446;-2.018;2022-09-29T10:20:56;6.88;;;3.58;;
55678;SDS011;41573;51.446;-2.018;2022-09-29T10:23:29;5.90;;;3.58;;
55678;SDS011;41573;51.446;-2.018;2022-09-29T10:28:49;7.30;;;3.10;;
55678;SDS011;41573;51.446;-2.018;2022-09-29T10:33:49;5.55;;;3.25;;
55678;SDS011;41573;51.446;-2.018;2022-09-29T10:36:16;4.90;;;3.20;;
55678;SDS011;41573;51.446;-2.018;2022-09-29T10:38:50;5.10;;;3.22;;
55678;SDS011;41573;51.446;-2.018;2022-09-29T10:41:17;7.47;;;3.80;;
55678;SDS011;41573;51.446;-2.018;2022-09-29T10:43:44;7.30;;;3.30;;
55678;SDS011;41573;51.446;-2.018;2022-09-29T10:51:56;8.43;;;3.28;;
55678;SDS011;41573;51.446;-2.018;2022-09-29T10:54:25;6.32;;;2.85;;
55678;SDS011;41573;51.446;-2.018;2022-09-29T10:56:51;5.03;;;3.05;;
55678;SDS011;41573;51.446;-2.018;2022-09-29T10:59:18;6.75;;;2.90;;
55678;SDS011;41573;51.446;-2.018;2022-09-29T11:01:47;4.75;;;2.70;;
55678;SDS011;41573;51.446;-2.018;2022-09-29T11:04:20;4.45;;;2.47;;
55678;SDS011;41573;51.446;-2.018;2022-09-29T11:06:50;4.68;;;2.97;;
55678;SDS011;41573;51.446;-2.018;2022-09-29T11:17:00;3.22;;;2.00;;
55678;SDS011;41573;51.446;-2.018;2022-09-29T11:19:29;3.83;;;2.33;;
55678;SDS011;41573;51.446;-2.018;2022-09-29T11:22:03;3.08;;;2.13;;
55678;SDS011;41573;51.446;-2.018;2022-09-29T11:30:25;3.30;;;2.38;;
55678;SDS011;41573;51.446;-2.018;2022-09-29T11:42:07;3.60;;;2.00;;
55678;SDS011;41573;51.446;-2.018;2022-09-29T11:53:03;3.38;;;2.25;;
55678;SDS011;41573;51.446;-2.018;2022-09-29T12:01:05;4.45;;;2.65;;
55678;SDS011;41573;51.446;-2.018;2022-09-29T12:11:49;5.10;;;2.42;;
55678;SDS011;41573;51.446;-2.018;2022-09-29T12:14:32;3.03;;;1.98;;
55678;SDS011;41573;51.446;-2.018;2022-09-29T12:17:26;3.55;;;2.08;;
55678;SDS011;41573;51.446;-2.018;2022-09-29T12:20:00;3.63;;;1.73;;
55678;SDS011;41573;51.446;-2.018;2022-09-29T12:22:46;6.00;;;1.80;;
55678;SDS011;41573;51.446;-2.018;2022-09-29T12:25:17;2.33;;;1.40;;
55678;SDS011;41573;51.446;-2.018;2022-09-29T12:27:48;3.15;;;1.60;;
55678;SDS011;41573;51.446;-2.018;2022-09-29T12:31:02;2.42;;;1.48;;
55678;SDS011;41573;51.446;-2.018;2022-09-29T12:38:27;3.17;;;1.73;;
55678;SDS011;41573;51.446;-2.018;2022-09-29T12:44:13;2.33;;;1.20;;
55678;SDS011;41573;51.446;-2.018;2022-09-29T12:47:13;2.42;;;1.27;;
55678;SDS011;41573;51.446;-2.018;2022-09-29T12:52:23;2.13;;;1.40;;
55678;SDS011;41573;51.446;-2.018;2022-09-29T12:54:54;2.40;;;1.58;;
55678;SDS011;41573;51.446;-2.018;2022-09-29T12:57:31;2.72;;;1.60;;
55678;SDS011;41573;51.446;-2.018;2022-09-29T13:00:02;3.10;;;1.40;;
55678;SDS011;41573;51.446;-2.018;2022-09-29T13:16:16;1.80;;;1.40;;
55678;SDS011;41573;51.446;-2.018;2022-09-29T13:21:38;3.35;;;1.77;;
55678;SDS011;41573;51.446;-2.018;2022-09-29T13:27:01;4.30;;;1.48;;
55678;SDS011;41573;51.446;-2.018;2022-09-29T13:29:31;2.15;;;1.45;;
55678;SDS011;41573;51.446;-2.018;2022-09-29T13:32:04;3.00;;;1.65;;
55678;SDS011;41573;51.446;-2.018;2022-09-29T13:34:31;4.78;;;1.70;;
55678;SDS011;41573;51.446;-2.018;2022-09-29T13:37:12;5.30;;;1.60;;
55678;SDS011;41573;51.446;-2.018;2022-09-29T13:47:45;4.18;;;1.50;;
55678;SDS011;41573;51.446;-2.018;2022-09-29T13:58:26;2.35;;;1.40;;
55678;SDS011;41573;51.446;-2.018;2022-09-29T14:01:35;2.53;;;1.63;;
55678;SDS011;41573;51.446;-2.018;2022-09-29T14:07:06;2.80;;;1.50;;
55678;SDS011;41573;51.446;-2.018;2022-09-29T14:09:36;2.78;;;1.60;;
55678;SDS011;41573;51.446;-2.018;2022-09-29T14:12:16;3.85;;;1.90;;
55678;SDS011;41573;51.446;-2.018;2022-09-29T14:17:50;2.75;;;1.73;;
55678;SDS011;41573;51.446;-2.018;2022-09-29T14:20:19;3.08;;;1.70;;
55678;SDS011;41573;51.446;-2.018;2022-09-29T14:22:50;2.72;;;1.70;;
55678;SDS011;41573;51.446;-2.018;2022-09-29T14:27:44;3.15;;;1.83;;
55678;SDS011;41573;51.446;-2.018;2022-09-29T14:35:31;4.72;;;1.90;;
55678;SDS011;41573;51.446;-2.018;2022-09-29T14:40:52;5.25;;;2.28;;
55678;SDS011;41573;51.446;-2.018;2022-09-29T14:54:42;4.22;;;2.35;;
55678;SDS011;41573;51.446;-2.018;2022-09-29T15:02:46;3.17;;;2.22;;
55678;SDS011;41573;51.446;-2.018;2022-09-29T15:05:35;4.28;;;2.20;;
55678;SDS011;41573;51.446;-2.018;2022-09-29T15:08:00;3.03;;;2.05;;
55678;SDS011;41573;51.446;-2.018;2022-09-29T15:10:31;3.28;;;1.95;;
55678;SDS011;41573;51.446;-2.018;2022-09-29T15:15:55;3.25;;;1.90;;
55678;SDS011;41573;51.446;-2.018;2022-09-29T15:18:39;2.72;;;1.63;;
55678;SDS011;41573;51.446;-2.018;2022-09-29T15:23:54;3.75;;;2.08;;
55678;SDS011;41573;51.446;-2.018;2022-09-29T15:26:28;3.88;;;2.28;;
55678;SDS011;41573;51.446;-2.018;2022-09-29T15:28:56;3.00;;;2.15;;
55678;SDS011;41573;51.446;-2.018;2022-09-29T15:31:26;3.67;;;2.17;;
55678;SDS011;41573;51.446;-2.018;2022-09-29T15:33:55;4.18;;;2.38;;
55678;SDS011;41573;51.446;-2.018;2022-09-29T15:36:22;4.70;;;2.60;;
55678;SDS011;41573;51.446;-2.018;2022-09-29T15:39:03;5.00;;;2.60;;
55678;SDS011;41573;51.446;-2.018;2022-09-29T15:41:32;7.38;;;2.90;;
55678;SDS011;41573;51.446;-2.018;2022-09-29T15:44:03;4.93;;;2.67;;
55678;SDS011;41573;51.446;-2.018;2022-09-29T15:46:48;5.50;;;2.40;;
55678;SDS011;41573;51.446;-2.018;2022-09-29T15:49:17;4.75;;;2.72;;
55678;SDS011;41573;51.446;-2.018;2022-09-29T15:51:55;6.40;;;2.80;;
55678;SDS011;41573;51.446;-2.018;2022-09-29T15:54:23;5.00;;;2.53;;
55678;SDS011;41573;51.446;-2.018;2022-09-29T15:56:55;5.55;;;2.53;;
55678;SDS011;41573;51.446;-2.018;2022-09-29T16:02:08;7.03;;;2.67;;
55678;SDS011;41573;51.446;-2.018;2022-09-29T16:05:15;5.65;;;2.60;;
55678;SDS011;41573;51.446;-2.018;2022-09-29T16:07:48;4.82;;;2.53;;
55678;SDS011;41573;51.446;-2.018;2022-09-29T16:10:18;3.75;;;2.08;;
55678;SDS011;41573;51.446;-2.018;2022-09-29T16:12:55;5.00;;;2.25;;
55678;SDS011;41573;51.446;-2.018;2022-09-29T16:15:30;4.22;;;2.17;;
55678;SDS011;41573;51.446;-2.018;2022-09-29T16:17:58;3.08;;;2.03;;
55678;SDS011;41573;51.446;-2.018;2022-09-29T16:20:27;3.57;;;1.87;;
55678;SDS011;41573;51.446;-2.018;2022-09-29T16:22:55;4.78;;;1.80;;
55678;SDS011;41573;51.446;-2.018;2022-09-29T16:25:26;3.08;;;1.80;;
55678;SDS011;41573;51.446;-2.018;2022-09-29T16:27:57;2.95;;;1.70;;
55678;SDS011;41573;51.446;-2.018;2022-09-29T16:30:31;2.88;;;1.67;;
55678;SDS011;41573;51.446;-2.018;2022-09-29T16:33:30;2.35;;;1.52;;
55678;SDS011;41573;51.446;-2.018;2022-09-29T16:38:28;2.83;;;1.40;;
55678;SDS011;41573;51.446;-2.018;2022-09-29T16:40:58;2.97;;;1.77;;
55678;SDS011;41573;51.446;-2.018;2022-09-29T16:43:30;5.35;;;2.10;;
55678;SDS011;41573;51.446;-2.018;2022-09-29T16:45:57;2.88;;;1.80;;
55678;SDS011;41573;51.446;-2.018;2022-09-29T16:48:25;2.58;;;1.55;;
55678;SDS011;41573;51.446;-2.018;2022-09-29T16:50:54;2.78;;;1.60;;
55678;SDS011;41573;51.446;-2.018;2022-09-29T16:53:27;3.00;;;1.60;;
55678;SDS011;41573;51.446;-2.018;2022-09-29T16:55:56;2.50;;;1.70;;
55678;SDS011;41573;51.446;-2.018;2022-09-29T16:58:23;3.13;;;1.80;;
55678;SDS011;41573;51.446;-2.018;2022-09-29T17:00:50;2.25;;;1.60;;
55678;SDS011;41573;51.446;-2.018;2022-09-29T17:03:16;3.10;;;1.50;;
55678;SDS011;41573;51.446;-2.018;2022-09-29T17:05:42;2.58;;;1.50;;
55678;SDS011;41573;51.446;-2.018;2022-09-29T17:08:20;3.50;;;1.60;;
55678;SDS011;41573;51.446;-2.018;2022-09-29T17:10:49;3.38;;;1.70;;
55678;SDS011;41573;51.446;-2.018;2022-09-29T17:13:19;2.20;;;1.40;;
55678;SDS011;41573;51.446;-2.018;2022-09-29T17:15:46;4.50;;;1.50;;
55678;SDS011;41573;51.446;-2.018;2022-09-29T17:18:16;3.45;;;1.50;;
55678;SDS011;41573;51.446;-2.018;2022-09-29T17:20:43;2.47;;;1.17;;
55678;SDS011;41573;51.446;-2.018;2022-09-29T17:23:09;3.65;;;1.63;;
55678;SDS011;41573;51.446;-2.018;2022-09-29T17:25:35;3.63;;;1.02;;
55678;SDS011;41573;51.446;-2.018;2022-09-29T17:28:05;2.70;;;0.93;;
55678;SDS011;41573;51.446;-2.018;2022-09-29T17:30:40;1.98;;;1.30;;
55678;SDS011;41573;51.446;-2.018;2022-09-29T17:33:08;2.25;;;1.13;;
55678;SDS011;41573;51.446;-2.018;2022-09-29T17:35:36;1.50;;;1.07;;
55678;SDS011;41573;51.446;-2.018;2022-09-29T17:38:04;1.45;;;1.15;;
55678;SDS011;41573;51.446;-2.018;2022-09-29T17:40:46;1.25;;;0.95;;
55678;SDS011;41573;51.446;-2.018;2022-09-29T17:43:29;1.67;;;1.00;;
55678;SDS011;41573;51.446;-2.018;2022-09-29T17:45:55;2.55;;;1.40;;
55678;SDS011;41573;51.446;-2.018;2022-09-29T17:48:22;6.63;;;1.48;;
55678;SDS011;41573;51.446;-2.018;2022-09-29T17:50:49;3.42;;;1.48;;
55678;SDS011;41573;51.446;-2.018;2022-09-29T17:53:16;2.58;;;1.60;;
55678;SDS011;41573;51.446;-2.018;2022-09-29T17:55:44;2.28;;;1.33;;
55678;SDS011;41573;51.446;-2.018;2022-09-29T17:58:11;2.25;;;1.38;;
55678;SDS011;41573;51.446;-2.018;2022-09-29T18:00:40;2.70;;;1.40;;
55678;SDS011;41573;51.446;-2.018;2022-09-29T18:03:08;1.92;;;1.20;;
55678;SDS011;41573;51.446;-2.018;2022-09-29T18:05:36;3.05;;;1.40;;
55678;SDS011;41573;51.446;-2.018;2022-09-29T18:08:03;1.33;;;0.90;;
55678;SDS011;41573;51.446;-2.018;2022-09-29T18:13:02;2.53;;;1.42;;
55678;SDS011;41573;51.446;-2.018;2022-09-29T18:15:28;1.90;;;1.30;;
55678;SDS011;41573;51.446;-2.018;2022-09-29T18:17:54;2.28;;;1.50;;
55678;SDS011;41573;51.446;-2.018;2022-09-29T18:20:21;2.30;;;1.52;;
55678;SDS011;41573;51.446;-2.018;2022-09-29T18:22:47;3.10;;;1.70;;
55678;SDS011;41573;51.446;-2.018;2022-09-29T18:25:14;1.63;;;1.30;;
55678;SDS011;41573;51.446;-2.018;2022-09-29T18:27:41;2.22;;;1.70;;
55678;SDS011;41573;51.446;-2.018;2022-09-29T18:30:19;2.28;;;1.45;;